Marysville, Iowa
Current Conditions -  °F | °C
As of 12:55 PM on Thursday 30 Oct 2014 (Local Time) from KOXV Reporting Station
Clear Clear  
Wind Chill: 57°   Ceiling: Unl
Heat Index: 57°   Visibility: 8mi
Dew Point: 37°   Wind: 0mph
Humidity: 48%   Direction: NA
Pressure: 29.99"   Gusts: NA
Location:  41.1765°N, 92.9326°W
Report Text: KOXV 301755Z AUTO 00000KT 8SM CLR 14/03 A2999 RMK AO2
Loading
Personal Weather Stations






























Interactive Weather Map
Tropical Storm Tracking
New forecast layout! Learn more

10-Day Weather Forecast

Advertisements
Track Severe Weather on mobile